createdAt,value
2017-04-24T00:00:06.594Z,3.93
2017-04-24T00:00:47.081Z,3.93
2017-04-24T00:01:27.555Z,3.97
2017-04-24T00:02:08.035Z,3.9
2017-04-24T00:02:48.522Z,3.78
2017-04-24T00:03:29.037Z,3.87
2017-04-24T00:04:09.490Z,3.8
2017-04-24T00:04:49.967Z,3.84
2017-04-24T00:05:30.452Z,3.97
2017-04-24T00:06:10.964Z,3.87
2017-04-24T00:06:51.424Z,3.93
2017-04-24T00:07:31.900Z,3.87
2017-04-24T00:08:12.384Z,3.86
2017-04-24T00:08:52.857Z,3.86
2017-04-24T00:09:33.343Z,3.76
2017-04-24T00:10:13.821Z,3.83
2017-04-24T00:10:54.946Z,3.76
2017-04-24T00:11:35.434Z,3.79
2017-04-24T00:12:15.920Z,3.86
2017-04-24T00:12:56.394Z,3.84
2017-04-24T00:13:36.877Z,3.8
2017-04-24T00:14:17.374Z,3.91
2017-04-24T00:14:57.834Z,3.94
2017-04-24T00:15:38.320Z,3.87
2017-04-24T00:16:18.807Z,4
2017-04-24T00:16:59.298Z,4
2017-04-24T00:17:39.787Z,3.86
2017-04-24T00:18:20.275Z,3.83
2017-04-24T00:19:00.775Z,3.9
2017-04-24T00:19:41.241Z,3.8
2017-04-24T00:20:21.726Z,3.72
2017-04-24T00:21:02.218Z,3.79
2017-04-24T00:21:42.707Z,3.83
2017-04-24T00:22:23.196Z,3.73
2017-04-24T00:23:03.696Z,3.79
2017-04-24T00:23:44.178Z,3.75
2017-04-24T00:24:24.669Z,3.78
2017-04-24T00:25:05.163Z,3.76
2017-04-24T00:25:45.672Z,3.93
2017-04-24T00:26:26.151Z,3.78
2017-04-24T00:27:06.633Z,3.75
2017-04-24T00:27:47.126Z,3.72
2017-04-24T00:28:27.603Z,3.78
2017-04-24T00:29:08.095Z,3.76
2017-04-24T00:29:48.580Z,3.75
2017-04-24T00:30:29.064Z,3.8
2017-04-24T00:31:09.559Z,3.78
2017-04-24T00:31:50.056Z,3.76
2017-04-24T00:32:30.543Z,3.76
2017-04-24T00:33:11.036Z,3.75
2017-04-24T00:33:51.541Z,3.75
2017-04-24T00:34:32.040Z,3.8
2017-04-24T00:35:12.507Z,3.7
2017-04-24T00:35:52.991Z,3.75
2017-04-24T00:36:33.475Z,3.75
2017-04-24T00:37:13.960Z,3.78
2017-04-24T00:37:54.448Z,3.78
2017-04-24T00:38:34.944Z,3.78
2017-04-24T00:39:15.442Z,3.75
2017-04-24T00:39:55.909Z,3.78
2017-04-24T00:40:36.390Z,3.72
2017-04-24T00:41:16.878Z,3.8
2017-04-24T00:41:57.372Z,3.76
2017-04-24T00:42:37.849Z,3.8
2017-04-24T00:43:18.306Z,3.75
2017-04-24T00:43:58.795Z,3.57
2017-04-24T00:44:39.297Z,3.69
2017-04-24T00:45:19.785Z,3.61
2017-04-24T00:46:00.275Z,3.54
2017-04-24T00:46:40.773Z,3.5
2017-04-24T00:47:21.265Z,3.5
2017-04-24T00:48:01.744Z,3.52
2017-04-24T00:48:42.235Z,3.5
2017-04-24T00:49:22.721Z,3.66
2017-04-24T00:50:03.216Z,3.62
2017-04-24T00:50:43.710Z,3.65
2017-04-24T00:51:24.198Z,3.61
2017-04-24T00:52:04.690Z,3.6
2017-04-24T00:52:45.193Z,3.47
2017-04-24T00:53:25.671Z,3.51
2017-04-24T00:54:06.168Z,3.43
2017-04-24T00:54:46.657Z,3.55
2017-04-24T00:55:27.150Z,3.5
2017-04-24T00:56:07.631Z,3.45
2017-04-24T00:56:48.121Z,3.51
2017-04-24T00:57:28.613Z,3.52
2017-04-24T00:58:09.098Z,3.52
2017-04-24T00:58:49.578Z,3.48
2017-04-24T00:59:30.057Z,3.69
2017-04-24T01:00:10.559Z,3.62
2017-04-24T01:00:51.040Z,3.61
2017-04-24T01:01:31.537Z,3.47
2017-04-24T01:02:12.014Z,3.48
2017-04-24T01:02:52.494Z,3.45
2017-04-24T01:03:32.988Z,3.52
2017-04-24T01:04:13.493Z,3.45
2017-04-24T01:04:53.962Z,3.45
2017-04-24T01:05:34.446Z,3.54
2017-04-24T01:06:14.935Z,3.48
2017-04-24T01:06:55.416Z,3.47
2017-04-24T01:07:35.901Z,3.52
2017-04-24T01:08:16.391Z,3.57
2017-04-24T01:08:56.874Z,3.5
2017-04-24T01:09:37.358Z,3.52
2017-04-24T01:10:17.841Z,3.55
2017-04-24T01:10:58.326Z,3.52
2017-04-24T01:11:38.806Z,3.47
2017-04-24T01:12:19.298Z,3.47
2017-04-24T01:12:59.775Z,3.5
2017-04-24T01:13:40.274Z,3.52
2017-04-24T01:14:20.778Z,3.45
2017-04-24T01:15:01.253Z,3.4
2017-04-24T01:15:41.734Z,3.47
2017-04-24T01:16:22.215Z,3.39
2017-04-24T01:17:02.713Z,3.48
2017-04-24T01:17:43.191Z,3.51
2017-04-24T01:18:23.683Z,3.43
2017-04-24T01:19:04.187Z,3.51
2017-04-24T01:19:44.673Z,3.45
2017-04-24T01:20:25.165Z,3.47
2017-04-24T01:21:05.644Z,3.52
2017-04-24T01:21:46.148Z,3.32
2017-04-24T01:22:26.627Z,3.29
2017-04-24T01:23:07.111Z,3.32
2017-04-24T01:23:47.595Z,3.4
2017-04-24T01:24:28.085Z,3.33
2017-04-24T01:25:08.579Z,3.39
2017-04-24T01:25:49.070Z,3.48
2017-04-24T01:26:29.563Z,3.43
2017-04-24T01:27:10.057Z,3.4
2017-04-24T01:27:50.533Z,3.42
2017-04-24T01:28:31.023Z,3.48
2017-04-24T01:29:11.508Z,3.4
2017-04-24T01:29:51.990Z,3.35
2017-04-24T01:30:32.469Z,3.39
2017-04-24T01:31:12.961Z,3.4
2017-04-24T01:31:53.452Z,3.52
2017-04-24T01:32:33.938Z,3.48
2017-04-24T01:33:14.417Z,3.42
2017-04-24T01:33:54.907Z,3.51
2017-04-24T01:34:35.407Z,3.51
2017-04-24T01:35:15.894Z,3.54
2017-04-24T01:35:56.382Z,3.5
2017-04-24T01:36:36.848Z,3.39
2017-04-24T01:37:17.334Z,3.35
2017-04-24T01:37:57.829Z,3.29
2017-04-24T01:38:38.317Z,3.26
2017-04-24T01:39:18.788Z,3.33
2017-04-24T01:39:59.274Z,3.4
2017-04-24T01:40:39.774Z,3.32
2017-04-24T01:41:20.251Z,3.29
2017-04-24T01:42:00.726Z,3.28
2017-04-24T01:42:41.209Z,3.28
2017-04-24T01:43:21.693Z,3.24
2017-04-24T01:44:02.194Z,3.26
2017-04-24T01:44:42.670Z,3.26
2017-04-24T01:45:23.142Z,3.31
2017-04-24T01:46:03.628Z,3.24
2017-04-24T01:46:44.119Z,3.24
2017-04-24T01:47:24.601Z,3.21
2017-04-24T01:48:05.077Z,3.26
2017-04-24T01:48:45.578Z,3.33
2017-04-24T01:49:26.063Z,3.35
2017-04-24T01:50:06.557Z,3.28
2017-04-24T01:50:47.037Z,3.24
2017-04-24T01:51:27.531Z,3.26
2017-04-24T01:52:08.017Z,3.28
2017-04-24T01:52:48.497Z,3.23
2017-04-24T01:53:28.990Z,3.31
2017-04-24T01:54:09.477Z,3.21
2017-04-24T01:54:49.973Z,3.21
2017-04-24T01:55:30.467Z,3.14
2017-04-24T01:56:10.952Z,3.28
2017-04-24T01:56:51.451Z,3.31
2017-04-24T01:57:31.948Z,3.33
2017-04-24T01:58:12.424Z,3.24
2017-04-24T01:58:52.921Z,3.28
2017-04-24T01:59:33.410Z,3.15
2017-04-24T02:00:13.907Z,3.28
2017-04-24T02:00:54.386Z,3.29
2017-04-24T02:01:34.864Z,3.21
2017-04-24T02:02:15.350Z,3.21
2017-04-24T02:02:55.843Z,3.21
2017-04-24T02:03:36.342Z,3.13
2017-04-24T02:04:16.828Z,3.23
2017-04-24T02:04:57.326Z,3.18
2017-04-24T02:05:37.810Z,3.21
2017-04-24T02:06:18.293Z,3.31
2017-04-24T02:06:58.786Z,3.14
2017-04-24T02:07:39.267Z,3.11
2017-04-24T02:08:19.755Z,3.15
2017-04-24T02:09:00.250Z,3.14
2017-04-24T02:09:40.729Z,3.13
2017-04-24T02:10:21.205Z,3.17
2017-04-24T02:11:01.685Z,3.1
2017-04-24T02:11:42.186Z,3.18
2017-04-24T02:12:22.669Z,3.13
2017-04-24T02:13:03.147Z,3.08
2017-04-24T02:13:43.635Z,3.14
2017-04-24T02:14:24.130Z,3.1
2017-04-24T02:15:04.593Z,3.14
2017-04-24T02:15:45.081Z,3.1
2017-04-24T02:16:25.563Z,3.17
2017-04-24T02:17:06.056Z,3.1
2017-04-24T02:17:46.538Z,3.13
2017-04-24T02:18:27.035Z,3.13
2017-04-24T02:19:07.550Z,3.13
2017-04-24T02:19:48.024Z,3.08
2017-04-24T02:20:28.513Z,3.1
2017-04-24T02:21:08.989Z,3.02
2017-04-24T02:21:49.485Z,3.05
2017-04-24T02:22:29.965Z,3.06
2017-04-24T02:23:10.453Z,3.13
2017-04-24T02:23:50.935Z,3.1
2017-04-24T02:24:31.428Z,3.13
2017-04-24T02:25:11.910Z,3.18
2017-04-24T02:27:24.613Z,3.14
2017-04-24T02:28:05.082Z,3.05
2017-04-24T02:28:45.546Z,3.11
2017-04-24T02:29:26.038Z,3
2017-04-24T02:30:06.553Z,3.03
2017-04-24T02:30:47.019Z,3
2017-04-24T02:31:27.496Z,3.02
2017-04-24T02:32:07.978Z,3.02
2017-04-24T02:32:48.465Z,3.02
2017-04-24T02:33:28.950Z,2.99
2017-04-24T02:34:09.435Z,2.99
2017-04-24T02:34:49.908Z,3.02
2017-04-24T02:35:30.388Z,3
2017-04-24T02:36:10.870Z,3
2017-04-24T02:36:51.364Z,2.99
2017-04-24T02:37:31.826Z,3.03
2017-04-24T02:38:12.306Z,3.03
2017-04-24T02:38:52.805Z,2.93
2017-04-24T02:39:33.284Z,2.96
2017-04-24T02:40:13.773Z,2.92
2017-04-24T02:40:54.251Z,2.99
2017-04-24T02:41:34.752Z,3
2017-04-24T02:42:15.234Z,3.05
2017-04-24T02:42:55.719Z,2.97
2017-04-24T02:43:36.209Z,2.93
2017-04-24T02:44:16.698Z,2.93
2017-04-24T02:44:57.191Z,2.92
2017-04-24T02:45:37.673Z,2.89
2017-04-24T02:46:18.195Z,2.93
2017-04-24T02:46:58.642Z,2.95
2017-04-24T02:47:39.132Z,2.97
2017-04-24T02:48:19.630Z,2.87
2017-04-24T02:49:00.104Z,2.99
2017-04-24T02:49:40.600Z,2.97
2017-04-24T02:50:21.071Z,2.95
2017-04-24T02:51:01.565Z,2.87
2017-04-24T02:51:42.034Z,2.85
2017-04-24T02:52:22.527Z,2.82
2017-04-24T02:53:03.021Z,2.87
2017-04-24T02:53:43.512Z,2.96
2017-04-24T02:54:24.017Z,2.93
2017-04-24T02:55:04.497Z,2.92
2017-04-24T02:55:44.991Z,2.85
2017-04-24T02:56:25.460Z,2.81
2017-04-24T02:57:05.938Z,2.9
2017-04-24T02:57:46.420Z,2.85
2017-04-24T02:58:26.917Z,2.87
2017-04-24T02:59:07.400Z,2.89
2017-04-24T02:59:47.892Z,2.85
2017-04-24T03:00:28.402Z,2.93
2017-04-24T03:01:08.871Z,2.9
2017-04-24T03:01:49.356Z,2.9
2017-04-24T03:02:29.836Z,2.84
2017-04-24T03:03:10.326Z,2.89
2017-04-24T03:03:50.806Z,2.81
2017-04-24T03:04:31.289Z,2.79
2017-04-24T03:05:11.776Z,2.89
2017-04-24T03:05:52.268Z,2.85
2017-04-24T03:06:32.751Z,2.78
2017-04-24T03:07:13.239Z,2.82
2017-04-24T03:07:53.731Z,2.84
2017-04-24T03:08:34.216Z,2.82
2017-04-24T03:09:14.713Z,2.85
2017-04-24T03:09:55.198Z,2.87
2017-04-24T03:10:35.689Z,2.84
2017-04-24T03:11:16.182Z,2.81
2017-04-24T03:11:56.662Z,2.75
2017-04-24T03:12:37.145Z,2.75
2017-04-24T03:13:17.628Z,2.77
2017-04-24T03:13:58.105Z,2.78
2017-04-24T03:14:38.589Z,2.71
2017-04-24T03:15:19.088Z,2.85
2017-04-24T03:15:59.566Z,2.79
2017-04-24T03:16:40.035Z,2.79
2017-04-24T03:17:20.522Z,2.84
2017-04-24T03:18:01.017Z,2.75
2017-04-24T03:18:41.505Z,2.75
2017-04-24T03:19:21.997Z,2.77
2017-04-24T03:20:02.491Z,2.72
2017-04-24T03:20:42.971Z,2.75
2017-04-24T03:21:23.459Z,2.74
2017-04-24T03:22:03.936Z,2.69
2017-04-24T03:22:44.418Z,2.69
2017-04-24T03:23:24.909Z,2.72
2017-04-24T03:24:05.390Z,2.63
2017-04-24T03:24:45.876Z,2.67
2017-04-24T03:25:26.368Z,2.67
2017-04-24T03:26:06.850Z,2.63
2017-04-24T03:26:47.345Z,2.78
2017-04-24T03:27:27.828Z,2.87
2017-04-24T03:28:08.314Z,2.84
2017-04-24T03:28:48.799Z,2.74
2017-04-24T03:29:29.287Z,2.75
2017-04-24T03:30:09.785Z,2.74
2017-04-24T03:30:50.269Z,2.75
2017-04-24T03:31:30.762Z,2.74
2017-04-24T03:32:11.268Z,2.81
2017-04-24T03:32:51.756Z,2.79
2017-04-24T03:33:32.240Z,2.84
2017-04-24T03:34:12.724Z,2.77
2017-04-24T03:34:53.224Z,2.74
2017-04-24T03:35:33.698Z,2.75
2017-04-24T03:36:14.173Z,2.74
2017-04-24T03:36:54.657Z,2.72
2017-04-24T03:37:35.159Z,2.75
2017-04-24T03:38:15.648Z,2.79
2017-04-24T03:38:56.140Z,2.75
2017-04-24T03:39:36.631Z,2.77
2017-04-24T03:41:34.283Z,2.81
2017-04-24T03:42:14.775Z,2.77
2017-04-24T03:42:55.252Z,2.71
2017-04-24T03:43:35.743Z,2.69
2017-04-24T03:44:16.234Z,2.66
2017-04-24T03:44:56.716Z,2.67
2017-04-24T03:45:37.204Z,2.71
2017-04-24T03:46:17.709Z,2.63
2017-04-24T03:46:58.187Z,2.61
2017-04-24T03:47:38.659Z,2.57
2017-04-24T03:48:19.143Z,2.53
2017-04-24T03:48:59.635Z,2.57
2017-04-24T03:49:40.127Z,2.59
2017-04-24T03:50:20.634Z,2.56
2017-04-24T03:51:01.096Z,2.53
2017-04-24T03:51:41.584Z,2.6
2017-04-24T03:52:22.084Z,2.6
2017-04-24T03:53:02.532Z,2.6
2017-04-24T03:53:43.033Z,2.57
2017-04-24T03:54:23.512Z,2.53
2017-04-24T03:55:04.005Z,2.52
2017-04-24T03:55:44.467Z,2.53
2017-04-24T03:56:24.947Z,2.49
2017-04-24T03:57:05.432Z,2.57
2017-04-24T03:57:45.927Z,2.59
2017-04-24T03:58:26.404Z,2.59
2017-04-24T03:59:06.893Z,2.49
2017-04-24T03:59:47.383Z,2.54
2017-04-24T04:00:27.867Z,2.57
2017-04-24T04:01:08.357Z,2.6
2017-04-24T04:01:48.854Z,2.54
2017-04-24T04:02:29.350Z,2.67
2017-04-24T04:03:09.823Z,2.63
2017-04-24T04:03:50.308Z,2.61
2017-04-24T04:04:30.798Z,2.57
2017-04-24T04:05:11.284Z,2.63
2017-04-24T04:05:51.747Z,2.52
2017-04-24T04:06:32.235Z,2.56
2017-04-24T04:07:12.714Z,2.6
2017-04-24T04:07:53.199Z,2.52
2017-04-24T04:08:33.682Z,2.59
2017-04-24T04:09:14.170Z,2.59
2017-04-24T04:09:54.667Z,2.56
2017-04-24T04:10:35.150Z,2.49
2017-04-24T04:11:15.612Z,2.42
2017-04-24T04:11:56.102Z,2.52
2017-04-24T04:12:36.581Z,2.54
2017-04-24T04:13:17.068Z,2.46
2017-04-24T04:13:57.553Z,2.52
2017-04-24T04:14:38.034Z,2.49
2017-04-24T04:15:18.520Z,2.42
2017-04-24T04:15:59.004Z,2.48
2017-04-24T04:16:39.482Z,2.45
2017-04-24T04:17:19.973Z,2.48
2017-04-24T04:18:00.488Z,2.49
2017-04-24T04:18:40.959Z,2.49
2017-04-24T04:19:21.437Z,2.49
2017-04-24T04:20:01.926Z,2.42
2017-04-24T04:20:42.411Z,2.41
2017-04-24T04:21:22.891Z,2.39
2017-04-24T04:22:03.385Z,2.45
2017-04-24T04:22:43.886Z,2.49
2017-04-24T04:23:24.376Z,2.53
2017-04-24T04:24:04.847Z,2.43
2017-04-24T04:24:45.340Z,2.49
2017-04-24T04:25:25.832Z,2.38
2017-04-24T04:26:06.325Z,2.42
2017-04-24T04:26:46.802Z,2.46
2017-04-24T04:27:27.300Z,2.56
2017-04-24T04:28:07.783Z,2.46
2017-04-24T04:28:48.255Z,2.52
2017-04-24T04:29:28.737Z,2.39
2017-04-24T04:30:09.239Z,2.46
2017-04-24T04:30:49.719Z,2.43
2017-04-24T04:31:30.215Z,2.42
2017-04-24T04:32:10.692Z,2.48
2017-04-24T04:32:51.193Z,2.39
2017-04-24T04:33:31.686Z,2.39
2017-04-24T04:34:12.201Z,2.49
2017-04-24T04:34:52.669Z,2.52
2017-04-24T04:35:33.150Z,2.49
2017-04-24T04:36:13.635Z,2.49
2017-04-24T04:36:54.109Z,2.43
2017-04-24T04:37:34.593Z,2.53
2017-04-24T04:38:15.102Z,2.6
2017-04-24T04:38:55.549Z,2.48
2017-04-24T04:39:36.027Z,2.46
2017-04-24T04:40:16.515Z,2.48
2017-04-24T04:40:56.997Z,2.59
2017-04-24T04:41:37.513Z,2.56
2017-04-24T04:42:18.003Z,2.56
2017-04-24T04:42:58.494Z,2.53
2017-04-24T04:43:38.970Z,2.61
2017-04-24T04:44:19.474Z,2.54
2017-04-24T04:44:59.965Z,2.57
2017-04-24T04:45:40.460Z,2.61
2017-04-24T04:46:20.952Z,2.64
2017-04-24T04:47:01.435Z,2.56
2017-04-24T04:47:41.930Z,2.64
2017-04-24T04:48:22.422Z,2.64
2017-04-24T04:49:02.908Z,2.57
2017-04-24T04:49:43.405Z,2.56
2017-04-24T04:50:23.903Z,2.64
2017-04-24T04:51:04.387Z,2.67
2017-04-24T04:51:44.880Z,2.67
2017-04-24T04:52:25.376Z,2.67
2017-04-24T04:53:05.866Z,2.74
2017-04-24T04:53:46.358Z,2.78
2017-04-24T04:54:26.843Z,2.67
2017-04-24T04:55:07.342Z,2.64
2017-04-24T04:55:47.808Z,2.69
2017-04-24T04:56:28.297Z,2.67
2017-04-24T04:57:08.787Z,2.69
2017-04-24T04:57:49.274Z,2.77
2017-04-24T04:58:29.745Z,2.79
2017-04-24T04:59:10.233Z,2.72
2017-04-24T04:59:50.729Z,2.81
2017-04-24T05:00:31.211Z,2.72
2017-04-24T05:01:11.700Z,2.9
2017-04-24T05:01:52.170Z,2.85
2017-04-24T05:02:32.658Z,2.85
2017-04-24T05:03:13.142Z,2.92
2017-04-24T05:03:53.627Z,2.89
2017-04-24T05:04:34.109Z,2.96
2017-04-24T05:05:14.610Z,2.89
2017-04-24T05:05:55.095Z,2.92
2017-04-24T05:06:35.575Z,2.93
2017-04-24T05:07:16.071Z,2.9
2017-04-24T05:07:56.563Z,2.89
2017-04-24T05:08:37.062Z,2.97
2017-04-24T05:09:17.547Z,2.93
2017-04-24T05:09:58.030Z,2.97
2017-04-24T05:10:38.510Z,3.03
2017-04-24T05:11:18.993Z,3.15
2017-04-24T05:11:59.494Z,3.08
2017-04-24T05:12:39.975Z,3.06
2017-04-24T05:13:20.470Z,3.11
2017-04-24T05:14:00.960Z,3.13
2017-04-24T05:14:41.450Z,3.14
2017-04-24T05:15:21.923Z,3.17
2017-04-24T05:16:02.401Z,3.17
2017-04-24T05:16:42.881Z,3.26
2017-04-24T05:17:24.183Z,3.28
2017-04-24T05:18:04.730Z,3.35
2017-04-24T05:18:45.322Z,3.33
2017-04-24T05:19:25.811Z,3.42
2017-04-24T05:20:06.327Z,3.45
2017-04-24T05:20:46.994Z,3.52
2017-04-24T05:21:27.483Z,3.54
2017-04-24T05:22:07.984Z,3.61
2017-04-24T05:22:48.503Z,3.79
2017-04-24T05:23:29.070Z,3.79
2017-04-24T05:24:09.632Z,3.8
2017-04-24T05:24:50.251Z,4
2017-04-24T05:25:30.915Z,4.06
2017-04-24T05:26:11.535Z,4.23
2017-04-24T05:26:52.137Z,4.41
2017-04-24T05:27:32.810Z,4.41
2017-04-24T05:28:13.402Z,4.51
2017-04-24T05:28:54.028Z,4.62
2017-04-24T05:29:34.690Z,4.67
2017-04-24T05:30:15.299Z,4.63
2017-04-24T05:30:55.919Z,4.84
2017-04-24T05:31:36.542Z,4.91
2017-04-24T05:32:17.144Z,4.97
2017-04-24T05:32:57.781Z,5.02
2017-04-24T05:33:38.409Z,5.15
2017-04-24T05:34:19.048Z,5.28
2017-04-24T05:34:59.644Z,5.38
2017-04-24T05:35:40.272Z,5.42
2017-04-24T05:36:20.863Z,5.33
2017-04-24T05:37:01.525Z,5.4
2017-04-24T05:37:42.165Z,5.63
2017-04-24T05:38:22.845Z,5.83
2017-04-24T05:39:03.478Z,5.86
2017-04-24T05:39:44.121Z,6.14
2017-04-24T05:40:24.779Z,6.11
2017-04-24T05:41:05.410Z,5.93
2017-04-24T05:41:46.023Z,5.82
2017-04-24T05:42:26.650Z,5.96
2017-04-24T05:43:07.273Z,5.96
2017-04-24T05:43:47.918Z,5.94
2017-04-24T05:44:28.557Z,6.09
2017-04-24T05:45:09.143Z,6.36
2017-04-24T05:45:49.732Z,6.31
2017-04-24T05:46:30.351Z,6.51
2017-04-24T05:47:10.929Z,6.43
2017-04-24T05:47:51.566Z,6.33
2017-04-24T05:48:32.210Z,6.15
2017-04-24T05:49:12.832Z,6.17
2017-04-24T05:49:53.447Z,6.25
2017-04-24T05:50:34.094Z,6.21
2017-04-24T05:51:14.722Z,6.08
2017-04-24T05:51:55.343Z,5.99
2017-04-24T05:52:35.921Z,6.17
2017-04-24T05:53:16.527Z,6.34
2017-04-24T05:53:57.107Z,6.31
2017-04-24T05:54:37.740Z,6.52
2017-04-24T05:55:18.343Z,6.8
2017-04-24T05:55:58.921Z,7.06
2017-04-24T05:56:39.527Z,7.24
2017-04-24T05:57:20.134Z,7.35
2017-04-24T05:58:00.765Z,7.45
2017-04-24T05:58:41.372Z,7.4
2017-04-24T05:59:21.994Z,7.35
2017-04-24T06:00:02.633Z,7.6
2017-04-24T06:00:43.218Z,7.72
2017-04-24T06:01:23.811Z,7.83
2017-04-24T06:02:04.417Z,7.93
2017-04-24T06:02:45.048Z,8.01
2017-04-24T06:03:25.666Z,7.95
2017-04-24T06:04:06.275Z,7.82
2017-04-24T06:04:46.874Z,7.6
2017-04-24T06:05:27.485Z,7.53
2017-04-24T06:06:08.075Z,7.6
2017-04-24T06:06:48.676Z,7.77
2017-04-24T06:07:29.281Z,8.15
2017-04-24T06:08:09.870Z,8.26
2017-04-24T06:08:50.475Z,8.15
2017-04-24T06:09:31.040Z,8.22
2017-04-24T06:10:11.636Z,8.02
2017-04-24T06:10:52.227Z,8.33
2017-04-24T06:11:32.808Z,8.25
2017-04-24T06:12:13.406Z,8.34
2017-04-24T06:12:53.993Z,8.65
2017-04-24T06:13:34.536Z,8.81
2017-04-24T06:14:15.092Z,9.04
2017-04-24T06:14:55.653Z,9.23
2017-04-24T06:15:36.235Z,9.4
2017-04-24T06:16:16.833Z,9.61
2017-04-24T06:16:57.423Z,9.28
2017-04-24T06:17:38.064Z,9.61
2017-04-24T06:18:18.654Z,9.61
2017-04-24T06:18:59.276Z,9.53
2017-04-24T06:19:39.866Z,9.54
2017-04-24T06:20:20.351Z,9.72
2017-04-24T06:21:00.863Z,9.9
2017-04-24T06:21:41.530Z,10.17
2017-04-24T06:22:22.146Z,10.51
2017-04-24T06:23:02.778Z,10.32
2017-04-24T06:23:43.382Z,10.42
2017-04-24T06:24:23.957Z,10.17
2017-04-24T06:25:04.572Z,10.3
2017-04-24T06:25:45.190Z,10.71
2017-04-24T06:26:25.792Z,10.2
2017-04-24T06:27:06.403Z,10.14
2017-04-24T06:27:47.067Z,10.63
2017-04-24T06:28:27.684Z,11
2017-04-24T06:29:08.355Z,11.24
2017-04-24T06:29:48.953Z,11.37
2017-04-24T06:30:29.536Z,11.27
2017-04-24T06:31:10.121Z,11.27
2017-04-24T06:31:50.783Z,11.65
2017-04-24T06:32:31.395Z,11.65
2017-04-24T06:33:12.009Z,11.54
2017-04-24T06:33:52.604Z,11.7
2017-04-24T06:34:33.233Z,12.16
2017-04-24T06:35:13.832Z,12.19
2017-04-24T06:35:54.386Z,11.95
2017-04-24T06:36:34.926Z,11.7
2017-04-24T06:37:15.488Z,11.47
2017-04-24T06:37:56.057Z,11.85
2017-04-24T06:38:36.600Z,11.82
2017-04-24T06:39:17.162Z,12.04
2017-04-24T06:39:57.716Z,12.02
2017-04-24T06:40:38.275Z,12.24
2017-04-24T06:41:19.606Z,12.46
2017-04-24T06:42:00.125Z,12.21
2017-04-24T06:42:40.642Z,12.59
2017-04-24T06:43:21.160Z,12.59
2017-04-24T06:44:01.706Z,12.95
2017-04-24T06:44:42.225Z,13
2017-04-24T06:45:22.735Z,13.11
2017-04-24T06:46:03.276Z,13.23
2017-04-24T06:46:43.867Z,13.52
2017-04-24T06:47:24.410Z,13.48
2017-04-24T06:48:05.046Z,13.3
2017-04-24T06:48:45.667Z,13.87
2017-04-24T06:49:26.199Z,13.33
2017-04-24T06:50:06.715Z,12.71
2017-04-24T06:50:47.244Z,12.29
2017-04-24T06:51:27.748Z,12.52
2017-04-24T06:52:08.321Z,12.86
2017-04-24T06:52:48.875Z,12.93
2017-04-24T06:53:29.415Z,13.44
2017-04-24T06:54:09.960Z,13.62
2017-04-24T06:54:50.492Z,14.15
2017-04-24T06:55:31.075Z,14.21
2017-04-24T06:56:11.630Z,13.7
2017-04-24T06:56:52.192Z,13.19
2017-04-24T06:57:32.735Z,12.9
2017-04-24T06:58:13.311Z,12.72
2017-04-24T06:58:53.855Z,12.56
2017-04-24T06:59:34.429Z,13.15
2017-04-24T07:00:14.892Z,13.75
2017-04-24T07:00:55.452Z,14.64
2017-04-24T07:01:36.013Z,15.2
2017-04-24T07:02:16.553Z,15.21
2017-04-24T07:02:57.066Z,14.68
2017-04-24T07:03:37.645Z,15.01
2017-04-24T07:04:18.205Z,15.23
2017-04-24T07:04:58.739Z,15.47
2017-04-24T07:05:39.310Z,15.92
2017-04-24T07:06:19.876Z,16.3
2017-04-24T07:07:00.416Z,16.35
2017-04-24T07:07:40.978Z,15.93
2017-04-24T07:08:21.535Z,15.09
2017-04-24T07:09:02.090Z,15.43
2017-04-24T07:09:42.654Z,16.23
2017-04-24T07:10:23.214Z,16.11
2017-04-24T07:11:03.743Z,16.63
2017-04-24T07:11:44.306Z,16.7
2017-04-24T07:12:24.805Z,15.92
2017-04-24T07:13:05.352Z,15.43
2017-04-24T07:13:45.896Z,15.78
2017-04-24T07:14:26.495Z,15.89
2017-04-24T07:15:07.020Z,16.35
2017-04-24T07:15:47.542Z,16.17
2017-04-24T07:17:24.901Z,16.07
2017-04-24T07:18:05.456Z,16.17
2017-04-24T07:18:46.012Z,16.34
2017-04-24T07:19:26.571Z,15.84
2017-04-24T07:20:07.079Z,15.94
2017-04-24T07:20:47.668Z,16.2
2017-04-24T07:21:28.289Z,16.5
2017-04-24T07:22:08.814Z,16.3
2017-04-24T07:22:49.375Z,16.31
2017-04-24T07:23:29.945Z,15.65
2017-04-24T07:24:10.507Z,15.83
2017-04-24T07:24:51.110Z,15.6
2017-04-24T07:25:31.628Z,15.84
2017-04-24T07:26:12.197Z,15.92
2017-04-24T07:26:52.697Z,16.23
2017-04-24T07:27:33.215Z,15.84
2017-04-24T07:28:13.734Z,15.92
2017-04-24T07:28:54.277Z,16.09
2017-04-24T07:29:34.806Z,15.92
2017-04-24T07:30:15.337Z,16.23
2017-04-24T07:30:55.863Z,16.12
2017-04-24T07:31:36.391Z,15.76
2017-04-24T07:32:16.889Z,15.53
2017-04-24T07:32:57.401Z,15.38
2017-04-24T07:33:38.473Z,15.17
2017-04-24T07:34:18.991Z,15.21
2017-04-24T07:34:59.508Z,15.6
2017-04-24T07:35:40.006Z,15.78
2017-04-24T07:36:20.495Z,16.24
2017-04-24T07:37:01.074Z,16.48
2017-04-24T07:37:41.588Z,16.73
2017-04-24T07:38:22.064Z,15.86
2017-04-24T07:39:02.566Z,15.82
2017-04-24T07:39:43.080Z,14.95
2017-04-24T07:40:23.606Z,14.45
2017-04-24T07:42:36.345Z,14.72
2017-04-24T07:43:16.849Z,14.15
2017-04-24T07:43:57.330Z,14.39
2017-04-24T07:44:37.845Z,14.36
2017-04-24T07:45:18.292Z,14.83
2017-04-24T07:45:58.855Z,15.53
2017-04-24T07:46:39.407Z,15.76
2017-04-24T07:47:20.204Z,15.92
2017-04-24T07:48:00.645Z,16.34
2017-04-24T07:48:41.161Z,16.94
2017-04-24T07:49:21.713Z,17.25
2017-04-24T07:50:02.282Z,17.49
2017-04-24T07:50:42.803Z,17.9
2017-04-24T07:51:23.330Z,18.52
2017-04-24T07:52:03.870Z,18.41
2017-04-24T07:52:44.443Z,17.37
2017-04-24T07:53:24.960Z,16.88
2017-04-24T07:54:05.565Z,16.7
2017-04-24T07:54:46.127Z,17.25
2017-04-24T07:55:26.663Z,17.62
2017-04-24T07:56:07.214Z,17.86
2017-04-24T07:56:48.405Z,18.15
2017-04-24T07:57:28.936Z,18.05
2017-04-24T07:58:09.451Z,18.27
2017-04-24T07:58:49.932Z,18.84
2017-04-24T07:59:30.472Z,18.72
2017-04-24T08:00:10.929Z,18.58
2017-04-24T08:00:51.450Z,17.97
2017-04-24T08:01:31.957Z,18.11
2017-04-24T08:02:12.443Z,18.15
2017-04-24T08:02:52.947Z,19.04
2017-04-24T08:03:33.529Z,19.4
2017-04-24T08:04:14.086Z,19.63
2017-04-24T08:04:54.617Z,19.69
2017-04-24T08:05:35.160Z,20.13
2017-04-24T08:06:15.687Z,19.58
2017-04-24T08:06:56.225Z,20.01
2017-04-24T08:07:36.787Z,20.06
2017-04-24T08:08:17.348Z,20.43
2017-04-24T08:08:57.843Z,20.95
2017-04-24T08:09:38.374Z,21.62
2017-04-24T08:10:18.920Z,21.58
2017-04-24T08:10:59.447Z,21.72
2017-04-24T08:11:39.981Z,22.24
2017-04-24T08:12:20.517Z,22.45
2017-04-24T08:13:01.067Z,21.77
2017-04-24T08:13:41.631Z,22.46
2017-04-24T08:14:22.153Z,22.86
2017-04-24T08:15:02.700Z,22.36
2017-04-24T08:15:43.216Z,22.3
2017-04-24T08:16:23.741Z,22.39
2017-04-24T08:17:05.145Z,22.6
2017-04-24T08:17:45.645Z,22.3
2017-04-24T08:18:26.261Z,21.82
2017-04-24T08:19:06.831Z,20.54
2017-04-24T08:19:47.412Z,20.31
2017-04-24T08:20:28.000Z,20.67
2017-04-24T08:21:08.499Z,21.28
2017-04-24T08:21:49.079Z,21.54
2017-04-24T08:22:29.650Z,22.6
2017-04-24T08:23:10.165Z,22.79
2017-04-24T08:23:50.710Z,22.68
2017-04-24T08:24:31.284Z,22.62
2017-04-24T08:25:11.815Z,22.47
2017-04-24T08:25:52.288Z,22.4
2017-04-24T08:26:32.882Z,22.65
2017-04-24T08:27:13.617Z,22.18
2017-04-24T08:27:54.472Z,20.91
2017-04-24T08:29:31.868Z,21.53
2017-04-24T08:30:12.483Z,21.54
2017-04-24T08:30:53.104Z,21.74
2017-04-24T08:31:33.698Z,22.12
2017-04-24T08:33:11.215Z,22.14
2017-04-24T08:33:51.795Z,22.47
2017-04-24T08:34:32.425Z,23.27
2017-04-24T08:35:13.193Z,23.35
2017-04-24T08:35:53.887Z,23.17
2017-04-24T08:36:35.487Z,23.22
2017-04-24T08:37:16.917Z,22.6
2017-04-24T08:37:57.570Z,22.82
2017-04-24T08:38:38.527Z,23.35
2017-04-24T08:39:19.190Z,22.51
2017-04-24T08:39:59.861Z,22.72
2017-04-24T08:40:40.586Z,22.37
2017-04-24T08:41:21.284Z,21.79
2017-04-24T08:42:01.996Z,22.28
2017-04-24T08:42:43.039Z,21.42
2017-04-24T08:43:23.720Z,21.35
2017-04-24T08:44:04.360Z,21.53
2017-04-24T08:44:45.049Z,21.54
2017-04-24T08:45:25.719Z,21.84
2017-04-24T08:46:06.579Z,21.34
2017-04-24T08:46:47.293Z,21.35
2017-04-24T08:47:27.940Z,21.52
2017-04-24T08:48:08.582Z,21.46
2017-04-24T08:48:49.133Z,21.61
2017-04-24T08:49:29.610Z,21.52
2017-04-24T08:51:07.048Z,22.62
2017-04-24T08:51:47.653Z,21.82
2017-04-24T08:52:28.266Z,21.83
2017-04-24T08:53:08.970Z,22.17
2017-04-24T08:53:49.548Z,22.65
2017-04-24T08:54:30.188Z,22.18
2017-04-24T08:55:10.806Z,22.18
2017-04-24T08:55:51.415Z,22.67
2017-04-24T08:56:32.117Z,23.23
2017-04-24T08:57:12.754Z,23.93
2017-04-24T08:57:53.374Z,24.53
2017-04-24T08:58:33.969Z,25.27
2017-04-24T08:59:14.628Z,24.39
2017-04-24T08:59:55.259Z,23.31
2017-04-24T09:00:35.868Z,22.61
2017-04-24T09:01:16.517Z,22.85
2017-04-24T09:01:57.191Z,23.68
2017-04-24T09:02:37.867Z,23.83
2017-04-24T09:03:18.467Z,23.69
2017-04-24T09:03:59.207Z,24.13
2017-04-24T09:04:39.783Z,24.4